Time;durP1;ratioP1;P1;durP2;ratioP2;P2;SDS_P1;SDS_P2;PMS_P1;PMS_P2;Temp;Humidity;BMP_temperature;BMP_pressure;BME280_temperature;BME280_humidity;BME280_pressure;Samples;Min_cycle;Max_cycle;Signal;HPM_P1;HPM_P2
2024/01/20 00:01:08;;;;;;;20.67;12.10;;;1.50;94.80;;;;;;10411838;28;20288;-64
2024/01/20 00:06:11;;;;;;;24.40;16.70;;;1.40;94.30;;;;;;10411626;28;20277;-65
2024/01/20 00:11:15;;;;;;;24.30;17.47;;;1.40;94.30;;;;;;10411416;28;20263;-64
2024/01/20 00:16:20;;;;;;;29.80;18.40;;;1.40;94.30;;;;;;10410291;28;20226;-63
2024/01/20 00:21:25;;;;;;;31.10;18.87;;;1.40;94.50;;;;;;10411217;28;20284;-63
2024/01/20 00:26:29;;;;;;;18.20;11.23;;;1.40;94.80;;;;;;10411203;28;20547;-64
2024/01/20 00:31:34;;;;;;;15.80;9.90;;;1.40;94.40;;;;;;10410413;28;20245;-63
2024/01/20 00:36:38;;;;;;;24.33;15.40;;;1.30;95.00;;;;;;10410408;28;20188;-62
2024/01/20 00:41:42;;;;;;;29.33;17.37;;;1.30;94.50;;;;;;10410404;28;20272;-65
2024/01/20 00:46:47;;;;;;;20.70;12.50;;;1.30;94.70;;;;;;10410202;28;20277;-64
2024/01/20 00:51:51;;;;;;;21.63;11.77;;;1.30;94.50;;;;;;10410009;28;20416;-63
2024/01/20 00:56:54;;;;;;;17.10;9.50;;;1.30;94.60;;;;;;10409911;28;20254;-64
2024/01/20 01:01:59;;;;;;;13.87;9.50;;;1.30;94.70;;;;;;10409690;28;20266;-62
2024/01/20 01:07:03;;;;;;;14.67;9.80;;;1.30;94.30;;;;;;10409507;28;20216;-64
2024/01/20 01:12:06;;;;;;;16.67;10.07;;;1.20;94.30;;;;;;10409641;28;20228;-63
2024/01/20 01:17:11;;;;;;;17.03;10.63;;;1.20;94.00;;;;;;10409675;28;20568;-63
2024/01/20 01:22:15;;;;;;;15.73;10.37;;;1.20;94.10;;;;;;10409434;28;20788;-62
2024/01/20 01:27:19;;;;;;;16.67;10.70;;;1.20;94.40;;;;;;10408943;28;20895;-62
2024/01/20 01:32:25;;;;;;;17.73;9.77;;;1.20;94.00;;;;;;10409222;28;20338;-63
2024/01/20 01:37:29;;;;;;;17.07;10.53;;;1.20;94.40;;;;;;10409277;28;20200;-63
2024/01/20 01:42:33;;;;;;;16.30;10.77;;;1.20;94.00;;;;;;10408966;28;20282;-64
2024/01/20 01:47:38;;;;;;;17.13;10.77;;;1.20;94.10;;;;;;10409700;28;20269;-63
2024/01/20 01:52:43;;;;;;;18.27;10.73;;;1.20;93.80;;;;;;10408853;28;20216;-64
2024/01/20 01:57:48;;;;;;;17.73;10.63;;;1.20;94.00;;;;;;10408903;28;20199;-63
2024/01/20 02:02:53;;;;;;;16.23;10.17;;;1.20;93.90;;;;;;10408692;28;20224;-62
2024/01/20 02:07:59;;;;;;;18.87;11.77;;;1.20;93.80;;;;;;10408788;28;20264;-62
2024/01/20 02:13:03;;;;;;;17.50;10.93;;;1.10;93.70;;;;;;10408377;28;20282;-63
2024/01/20 02:18:08;;;;;;;20.13;11.83;;;1.10;93.60;;;;;;10408550;28;20227;-66
2024/01/20 02:23:13;;;;;;;16.60;11.07;;;1.10;93.60;;;;;;10408868;28;20686;-63
2024/01/20 02:28:16;;;;;;;19.27;10.30;;;1.10;93.60;;;;;;10408459;28;20346;-62
2024/01/20 02:33:20;;;;;;;17.37;11.50;;;1.10;93.50;;;;;;10408618;28;20228;-60
2024/01/20 02:38:25;;;;;;;17.23;10.33;;;1.00;93.70;;;;;;10411250;28;20258;-65
2024/01/20 02:43:28;;;;;;;18.27;11.27;;;1.00;93.20;;;;;;10415621;28;20224;-60
2024/01/20 02:48:32;;;;;;;16.80;11.00;;;1.00;93.60;;;;;;10415355;28;20632;-64
2024/01/20 02:53:37;;;;;;;17.37;11.07;;;0.90;93.20;;;;;;10414930;28;20270;-62
2024/01/20 02:58:41;;;;;;;16.50;11.30;;;0.90;93.00;;;;;;10433398;28;20238;-63
2024/01/20 03:03:45;;;;;;;16.80;10.83;;;0.80;92.90;;;;;;10431518;28;20302;-63
2024/01/20 03:08:50;;;;;;;15.53;10.77;;;0.80;92.80;;;;;;10414218;28;20270;-64
2024/01/20 03:13:54;;;;;;;18.27;10.90;;;0.80;92.70;;;;;;10413980;28;20232;-64
2024/01/20 03:18:58;;;;;;;16.63;10.20;;;0.70;92.70;;;;;;10413964;28;20211;-64
2024/01/20 03:24:03;;;;;;;15.17;10.30;;;0.70;92.70;;;;;;10416529;28;20273;-60
2024/01/20 03:29:06;;;;;;;17.73;10.40;;;0.70;92.80;;;;;;10415309;28;20216;-63
2024/01/20 03:34:10;;;;;;;16.33;10.60;;;0.70;92.70;;;;;;10425232;28;20196;-62
2024/01/20 03:39:15;;;;;;;19.07;11.47;;;0.60;92.80;;;;;;10418748;28;20246;-64
2024/01/20 03:44:19;;;;;;;18.57;11.07;;;0.60;93.50;;;;;;10427165;28;20203;-63
2024/01/20 03:49:22;;;;;;;20.83;11.87;;;0.60;92.70;;;;;;10431493;28;20216;-65
2024/01/20 03:54:27;;;;;;;17.67;10.77;;;0.60;92.70;;;;;;10411768;28;20196;-63
2024/01/20 03:59:31;;;;;;;19.90;11.73;;;0.50;93.40;;;;;;10426113;28;20211;-64
2024/01/20 04:04:37;;;;;;;19.93;11.80;;;0.50;93.20;;;;;;10429348;28;20200;-64
2024/01/20 04:09:42;;;;;;;20.50;11.70;;;0.60;93.00;;;;;;10411700;28;20224;-62
2024/01/20 04:14:45;;;;;;;17.60;10.97;;;0.50;92.60;;;;;;10396597;28;20204;-63
2024/01/20 04:19:49;;;;;;;18.83;10.77;;;0.50;92.40;;;;;;10411409;28;20277;-63
2024/01/20 04:24:54;;;;;;;18.33;11.17;;;0.50;92.20;;;;;;10411013;28;20277;-62
2024/01/20 04:29:57;;;;;;;16.80;10.70;;;0.50;92.70;;;;;;10410829;28;20679;-65
2024/01/20 04:35:01;;;;;;;18.50;10.63;;;0.60;92.80;;;;;;10412169;28;20257;-62
2024/01/20 04:40:07;;;;;;;18.87;11.80;;;0.50;92.40;;;;;;10419853;28;20310;-61
2024/01/20 04:45:13;;;;;;;18.53;11.67;;;0.60;92.80;;;;;;10422449;28;20199;-61
2024/01/20 04:50:17;;;;;;;20.33;11.47;;;0.50;93.30;;;;;;10410526;28;20223;-62
2024/01/20 04:55:22;;;;;;;22.43;12.77;;;0.50;92.70;;;;;;10415266;28;20246;-63
2024/01/20 05:00:25;;;;;;;20.93;11.57;;;0.40;92.60;;;;;;10409032;28;20623;-62
2024/01/20 05:05:29;;;;;;;20.27;12.30;;;0.40;92.80;;;;;;10409660;28;20200;-65
2024/01/20 05:10:34;;;;;;;21.13;12.53;;;0.40;93.00;;;;;;10409546;28;20220;-63
2024/01/20 05:15:38;;;;;;;20.10;11.90;;;0.30;92.90;;;;;;10409091;28;20675;-63
2024/01/20 05:20:42;;;;;;;18.47;11.40;;;0.40;93.10;;;;;;10408899;28;20216;-63
2024/01/20 05:25:47;;;;;;;18.93;10.97;;;0.40;93.10;;;;;;10408933;28;20200;-63
2024/01/20 05:30:50;;;;;;;20.07;11.43;;;0.40;92.90;;;;;;10408943;28;20224;-61
2024/01/20 05:35:56;;;;;;;17.47;10.73;;;0.40;92.80;;;;;;10411213;28;20204;-63
2024/01/20 05:41:01;;;;;;;16.77;10.57;;;0.50;93.20;;;;;;10423251;28;20224;-64
2024/01/20 05:46:06;;;;;;;15.10;10.10;;;0.60;93.00;;;;;;10408515;28;20663;-63
2024/01/20 05:51:10;;;;;;;19.60;10.17;;;0.50;92.70;;;;;;10427644;28;20227;-62
2024/01/20 05:56:15;;;;;;;15.27;9.33;;;0.50;92.60;;;;;;10427611;28;20680;-63
2024/01/20 06:01:20;;;;;;;15.63;9.60;;;0.60;92.60;;;;;;10421560;28;20262;-62
2024/01/20 06:06:23;;;;;;;16.63;9.47;;;0.60;92.00;;;;;;10416733;28;20216;-61
2024/01/20 06:11:29;;;;;;;15.40;10.17;;;0.50;92.10;;;;;;10409044;28;20278;-63
2024/01/20 06:16:33;;;;;;;16.93;10.67;;;0.40;91.90;;;;;;10422582;28;20203;-63
2024/01/20 06:21:37;;;;;;;18.27;9.40;;;0.40;92.00;;;;;;10419621;28;20749;-63
2024/01/20 06:26:42;;;;;;;14.43;10.30;;;0.30;92.30;;;;;;10420271;28;20192;-67
2024/01/20 06:31:45;;;;;;;15.40;10.07;;;0.30;92.00;;;;;;10425647;28;20232;-63
2024/01/20 06:36:49;;;;;;;17.53;11.03;;;0.20;92.10;;;;;;10422251;28;20561;-64
2024/01/20 06:41:54;;;;;;;15.03;10.00;;;0.30;92.30;;;;;;10429881;28;20269;-65
2024/01/20 06:46:57;;;;;;;14.73;10.03;;;0.30;92.40;;;;;;10414266;28;20671;-63
2024/01/20 06:52:01;;;;;;;14.60;9.57;;;0.30;92.70;;;;;;10413926;28;20648;-65
2024/01/20 06:57:06;;;;;;;16.47;9.63;;;0.40;92.30;;;;;;10413767;28;20659;-63
2024/01/20 07:02:10;;;;;;;16.00;10.30;;;0.30;92.50;;;;;;10415301;28;20274;-63
2024/01/20 07:07:13;;;;;;;15.83;9.10;;;0.40;92.10;;;;;;10413530;28;20250;-65
2024/01/20 07:12:21;;;;;;;15.73;9.47;;;0.40;92.20;;;;;;10414954;28;20236;-61
2024/01/20 07:17:24;;;;;;;15.97;9.17;;;0.40;91.90;;;;;;10413278;28;20204;-66
2024/01/20 07:22:28;;;;;;;15.50;9.87;;;0.40;92.10;;;;;;10413014;28;20211;-62
2024/01/20 07:27:33;;;;;;;17.40;9.60;;;0.40;92.30;;;;;;10412000;28;20197;-64
2024/01/20 07:32:39;;;;;;;17.43;10.27;;;0.40;92.00;;;;;;10412743;28;20228;-61
2024/01/20 07:37:43;;;;;;;16.97;10.47;;;0.40;91.50;;;;;;10411769;28;20254;-62
2024/01/20 07:42:48;;;;;;;15.13;9.13;;;0.40;91.40;;;;;;10413211;28;20224;-65
2024/01/20 07:47:51;;;;;;;13.03;9.43;;;0.40;91.30;;;;;;10414407;28;20246;-62
2024/01/20 07:52:55;;;;;;;17.00;12.47;;;0.40;91.50;;;;;;10413822;28;20441;-65
2024/01/20 07:58:00;;;;;;;15.73;9.90;;;0.50;91.00;;;;;;10414969;28;20208;-64
2024/01/20 08:03:04;;;;;;;13.57;9.07;;;0.50;91.30;;;;;;10417995;28;20223;-65
2024/01/20 08:08:08;;;;;;;14.93;9.20;;;0.40;91.60;;;;;;10454305;28;20216;-62
2024/01/20 08:13:13;;;;;;;17.40;8.70;;;0.40;91.10;;;;;;10413855;28;20577;-66
2024/01/20 08:18:16;;;;;;;13.93;8.43;;;0.40;91.60;;;;;;10412124;28;20196;-65
2024/01/20 08:23:20;;;;;;;12.10;7.87;;;0.40;91.60;;;;;;10414059;28;20932;-64
2024/01/20 08:28:25;;;;;;;15.03;9.37;;;0.40;91.60;;;;;;10413286;28;20212;-64
2024/01/20 08:33:29;;;;;;;12.50;8.00;;;0.40;91.20;;;;;;10413869;28;20687;-67
2024/01/20 08:38:32;;;;;;;12.00;8.10;;;0.40;91.10;;;;;;10411204;28;20285;-64
2024/01/20 08:43:42;;;;;;;13.43;8.73;;;0.40;91.20;;;;;;10413132;28;20282;-64
2024/01/20 08:48:46;;;;;;;14.07;8.47;;;0.40;91.10;;;;;;10412652;28;20691;-65
2024/01/20 08:53:50;;;;;;;14.43;7.83;;;0.40;91.30;;;;;;10417103;28;20571;-64
2024/01/20 08:58:55;;;;;;;11.30;7.23;;;0.60;91.60;;;;;;10411976;28;20262;-64
2024/01/20 09:04:00;;;;;;;11.97;7.40;;;0.60;91.30;;;;;;10411839;28;20277;-64
2024/01/20 09:09:03;;;;;;;11.10;7.40;;;0.70;91.80;;;;;;10412010;28;20213;-62
2024/01/20 09:14:08;;;;;;;11.50;7.53;;;0.80;91.80;;;;;;10411706;28;20226;-62
2024/01/20 09:19:12;;;;;;;12.60;7.57;;;0.90;91.70;;;;;;10412068;28;20219;-64
2024/01/20 09:24:15;;;;;;;9.17;6.60;;;0.90;91.10;;;;;;10412358;28;20667;-62
2024/01/20 09:29:20;;;;;;;10.00;6.23;;;1.00;91.70;;;;;;10411698;28;20357;-63
2024/01/20 09:34:24;;;;;;;12.17;7.67;;;1.10;91.20;;;;;;10411453;28;20200;-65
2024/01/20 09:39:28;;;;;;;10.13;6.53;;;1.10;91.20;;;;;;10411484;28;20259;-62
2024/01/20 09:44:33;;;;;;;10.03;6.80;;;1.20;91.20;;;;;;10411711;28;20200;-63
2024/01/20 09:49:36;;;;;;;11.40;6.40;;;1.30;91.20;;;;;;10418533;28;20223;-64
2024/01/20 09:54:47;;;;;;;8.87;5.87;;;1.40;91.20;;;;;;10419774;28;20197;-65
2024/01/20 09:59:53;;;;;;;9.60;5.63;;;1.50;91.20;;;;;;10419539;28;20220;-65
2024/01/20 10:04:59;;;;;;;10.43;6.27;;;1.60;91.10;;;;;;10419152;28;20204;-63
2024/01/20 10:10:03;;;;;;;12.47;6.23;;;1.80;91.10;;;;;;10419726;28;20296;-65
2024/01/20 10:15:09;;;;;;;9.23;6.03;;;1.90;91.10;;;;;;10419479;28;20744;-63
2024/01/20 10:20:19;;;;;;;8.77;5.83;;;2.10;91.70;;;;;;10419191;28;20216;-64
2024/01/20 10:25:23;;;;;;;10.03;5.50;;;2.20;91.30;;;;;;10418364;28;20187;-64
2024/01/20 10:30:28;;;;;;;10.23;5.90;;;2.30;91.50;;;;;;10418202;28;20231;-64
2024/01/20 10:35:33;;;;;;;9.03;5.50;;;2.40;91.70;;;;;;10417899;28;20937;-64
2024/01/20 10:40:38;;;;;;;10.50;5.40;;;2.50;90.70;;;;;;10417468;28;20240;-65
2024/01/20 10:45:55;;;;;;;7.57;5.30;;;2.60;91.00;;;;;;10417150;28;20192;-65
2024/01/20 10:51:00;;;;;;;7.83;5.00;;;2.70;91.20;;;;;;10417384;28;20297;-63
2024/01/20 10:56:05;;;;;;;10.80;6.00;;;2.80;90.40;;;;;;10417170;28;20205;-63
2024/01/20 11:01:11;;;;;;;7.20;4.80;;;2.80;91.60;;;;;;10416546;28;20243;-64
2024/01/20 11:06:21;;;;;;;7.53;4.50;;;3.00;90.70;;;;;;10416566;28;20614;-63
2024/01/20 11:11:27;;;;;;;6.70;4.23;;;3.20;90.70;;;;;;10416522;28;20715;-63
2024/01/20 11:16:33;;;;;;;6.27;3.93;;;3.20;89.90;;;;;;10416509;28;20739;-65
2024/01/20 11:21:39;;;;;;;6.60;4.23;;;3.10;89.50;;;;;;10416655;28;20277;-63
2024/01/20 11:26:43;;;;;;;7.77;4.30;;;3.10;90.60;;;;;;10430181;28;20250;-66
2024/01/20 11:31:49;;;;;;;7.23;4.13;;;3.10;90.00;;;;;;10416396;28;20692;-66
2024/01/20 11:36:53;;;;;;;6.23;4.13;;;3.10;89.50;;;;;;10415534;28;20730;-64
2024/01/20 11:42:01;;;;;;;5.70;4.00;;;3.10;89.80;;;;;;10416029;28;20219;-64
2024/01/20 11:47:07;;;;;;;8.87;4.77;;;3.10;89.30;;;;;;10414966;28;20208;-64
2024/01/20 11:52:10;;;;;;;6.57;4.17;;;3.10;88.90;;;;;;10414767;28;20228;-62
2024/01/20 11:57:20;;;;;;;8.87;4.07;;;3.20;89.20;;;;;;10414624;28;20252;-62
2024/01/20 12:02:27;;;;;;;7.77;4.77;;;3.30;88.20;;;;;;10415197;28;20213;-65
2024/01/20 12:07:31;;;;;;;6.43;4.17;;;3.40;87.30;;;;;;10414881;28;20208;-64
2024/01/20 12:12:35;;;;;;;5.90;4.10;;;3.40;87.00;;;;;;10414487;28;20649;-65
2024/01/20 12:17:40;;;;;;;6.67;4.30;;;3.40;87.60;;;;;;10414259;28;20204;-62
2024/01/20 12:22:44;;;;;;;7.27;4.60;;;3.50;87.50;;;;;;10414334;28;20687;-63
2024/01/20 12:27:50;;;;;;;5.93;4.07;;;3.60;87.20;;;;;;10414368;28;20220;-62
2024/01/20 12:32:55;;;;;;;5.00;4.20;;;3.60;87.70;;;;;;10413587;28;20218;-64
2024/01/20 12:37:58;;;;;;;6.87;3.90;;;3.80;87.90;;;;;;10413577;28;20248;-62
2024/01/20 12:43:02;;;;;;;5.13;3.37;;;4.10;87.30;;;;;;10413571;28;20288;-64
2024/01/20 12:48:07;;;;;;;5.68;4.10;;;4.40;86.40;;;;;;10411012;28;20444;-65
2024/01/20 12:53:11;;;;;;;7.57;4.33;;;4.70;82.90;;;;;;10413052;28;20560;-63
2024/01/20 12:58:15;;;;;;;7.57;3.60;;;4.80;84.60;;;;;;10413260;28;20192;-63
2024/01/20 13:03:20;;;;;;;7.13;3.57;;;5.00;85.00;;;;;;10412746;28;20242;-64
2024/01/20 13:08:23;;;;;;;6.90;3.47;;;5.20;85.30;;;;;;10412647;28;20191;-61
2024/01/20 13:13:27;;;;;;;6.53;4.00;;;5.30;83.70;;;;;;10412291;28;20223;-63
2024/01/20 13:18:33;;;;;;;6.37;4.03;;;5.40;85.50;;;;;;10412466;28;20198;-65
2024/01/20 13:23:37;;;;;;;5.63;4.17;;;5.50;82.00;;;;;;10411279;28;20219;-63
2024/01/20 13:28:41;;;;;;;7.03;3.77;;;5.40;82.90;;;;;;10411702;28;20207;-63
2024/01/20 13:33:46;;;;;;;4.33;3.10;;;5.10;81.30;;;;;;10411695;28;20214;-65
2024/01/20 13:38:50;;;;;;;6.77;3.97;;;4.90;82.20;;;;;;10412432;28;20206;-65
2024/01/20 13:43:54;;;;;;;5.33;3.47;;;4.80;81.60;;;;;;10411364;28;20677;-63
2024/01/20 13:48:59;;;;;;;5.30;3.60;;;4.60;82.40;;;;;;10410970;28;20574;-64
2024/01/20 13:54:07;;;;;;;4.97;3.63;;;4.60;81.10;;;;;;10411004;28;20272;-65
2024/01/20 13:59:11;;;;;;;8.07;4.00;;;4.50;82.80;;;;;;10410618;28;20210;-65
2024/01/20 14:04:16;;;;;;;11.03;7.33;;;4.60;85.30;;;;;;10410973;28;20191;-64
2024/01/20 14:09:23;;;;;;;4.80;3.43;;;4.60;84.70;;;;;;10410756;28;20227;-65
2024/01/20 14:14:27;;;;;;;5.60;5.00;;;4.50;80.70;;;;;;10411896;28;20226;-64
2024/01/20 14:19:32;;;;;;;5.93;3.83;;;4.40;80.80;;;;;;10410636;28;20247;-63
2024/01/20 14:24:36;;;;;;;4.30;3.40;;;4.30;80.20;;;;;;10410818;28;20229;-64
2024/01/20 14:29:39;;;;;;;4.60;3.27;;;4.20;78.80;;;;;;10410549;28;20223;-63
2024/01/20 14:34:44;;;;;;;7.70;3.40;;;4.10;80.10;;;;;;10413369;28;20689;-64
2024/01/20 14:39:48;;;;;;;6.07;3.80;;;4.10;81.10;;;;;;10418495;28;20271;-64
2024/01/20 14:44:52;;;;;;;5.43;3.63;;;4.00;80.80;;;;;;10417745;28;20213;-64
2024/01/20 14:50:00;;;;;;;8.57;4.43;;;4.10;83.60;;;;;;10417609;28;20701;-63
2024/01/20 14:55:06;;;;;;;7.43;4.57;;;4.10;81.80;;;;;;10417332;28;20594;-66
2024/01/20 15:00:10;;;;;;;7.33;3.60;;;4.10;80.70;;;;;;10376689;28;20280;-63
2024/01/20 15:05:15;;;;;;;5.90;3.87;;;4.10;79.40;;;;;;10379203;28;20198;-60
2024/01/20 15:10:21;;;;;;;4.27;2.67;;;4.10;80.50;;;;;;10458283;28;20633;-64
2024/01/20 15:15:24;;;;;;;2.97;2.50;;;4.10;78.50;;;;;;10457885;28;20272;-64
2024/01/20 15:20:29;;;;;;;7.67;2.63;;;4.10;79.00;;;;;;10458155;28;20220;-66
2024/01/20 15:25:33;;;;;;;5.33;3.20;;;4.10;76.50;;;;;;10456983;28;20250;-66
2024/01/20 15:30:37;;;;;;;5.83;3.83;;;4.10;75.90;;;;;;10452058;28;20840;-64
2024/01/20 15:35:43;;;;;;;5.53;3.20;;;4.00;75.80;;;;;;10416143;28;20197;-66
2024/01/20 15:40:47;;;;;;;7.17;4.63;;;3.90;75.80;;;;;;10423375;28;20254;-67
2024/01/20 15:45:50;;;;;;;5.33;4.00;;;3.90;76.20;;;;;;10413557;28;20216;-64
2024/01/20 15:50:55;;;;;;;7.73;4.23;;;3.80;77.40;;;;;;10413435;28;20227;-64
2024/01/20 15:55:59;;;;;;;9.80;4.50;;;3.80;77.60;;;;;;10413078;28;20571;-66
2024/01/20 16:01:03;;;;;;;8.50;4.93;;;3.70;79.40;;;;;;10408235;28;20274;-66
2024/01/20 16:06:11;;;;;;;7.47;4.87;;;3.70;76.00;;;;;;10407767;28;20203;-70
2024/01/20 16:11:15;;;;;;;6.23;4.73;;;3.60;74.70;;;;;;10411151;28;20364;-68
2024/01/20 16:16:18;;;;;;;9.17;5.23;;;3.50;74.90;;;;;;10410434;28;20205;-69
2024/01/20 16:21:24;;;;;;;8.23;5.63;;;3.50;75.20;;;;;;10410294;28;20223;-66
2024/01/20 16:26:28;;;;;;;9.20;6.20;;;3.30;75.20;;;;;;10409902;28;20204;-64
2024/01/20 16:31:32;;;;;;;10.70;6.23;;;3.20;75.20;;;;;;10410900;28;20217;-65
2024/01/20 16:36:37;;;;;;;10.07;6.30;;;3.10;75.70;;;;;;10390206;28;20208;-64
2024/01/20 16:41:41;;;;;;;9.03;5.73;;;3.00;76.20;;;;;;10386828;28;20224;-67
2024/01/20 16:46:51;;;;;;;13.77;6.27;;;2.90;75.90;;;;;;10413432;28;20261;-64
2024/01/20 16:52:00;;;;;;;10.33;6.23;;;2.90;75.50;;;;;;10425238;28;20222;-65
2024/01/20 16:57:04;;;;;;;11.10;6.80;;;2.80;75.30;;;;;;10402764;28;20215;-67
2024/01/20 17:02:08;;;;;;;12.23;6.63;;;2.70;75.10;;;;;;10411977;28;20269;-67
2024/01/20 17:07:13;;;;;;;11.87;7.20;;;2.70;75.30;;;;;;10412093;28;20675;-67
2024/01/20 17:12:16;;;;;;;11.67;6.63;;;2.60;75.30;;;;;;10410710;28;20228;-65
2024/01/20 17:17:20;;;;;;;12.67;7.57;;;2.60;76.30;;;;;;10411195;28;20559;-66
2024/01/20 17:22:26;;;;;;;10.17;7.40;;;2.50;75.60;;;;;;10409598;28;20231;-65
2024/01/20 17:27:29;;;;;;;10.13;6.53;;;2.50;75.40;;;;;;10413532;28;20200;-65
2024/01/20 17:32:33;;;;;;;10.73;7.40;;;2.50;75.30;;;;;;10402319;28;20579;-66
2024/01/20 17:37:38;;;;;;;10.07;6.73;;;2.40;75.40;;;;;;10406808;28;20623;-68
2024/01/20 17:42:42;;;;;;;27.17;13.77;;;2.30;75.50;;;;;;10370190;28;20715;-64
2024/01/20 17:47:46;;;;;;;11.93;7.67;;;2.30;75.20;;;;;;10427930;28;20265;-69
2024/01/20 17:52:51;;;;;;;10.33;7.50;;;2.30;74.80;;;;;;10409072;28;20227;-68
2024/01/20 17:57:55;;;;;;;12.20;6.70;;;2.30;74.60;;;;;;10409032;28;20204;-67
2024/01/20 18:02:58;;;;;;;12.43;7.63;;;2.30;74.40;;;;;;10409125;28;20831;-67
2024/01/20 18:08:04;;;;;;;9.60;7.07;;;2.40;74.40;;;;;;10406902;28;20196;-67
2024/01/20 18:13:07;;;;;;;11.13;7.10;;;2.40;74.30;;;;;;10416036;28;20253;-66
2024/01/20 18:18:11;;;;;;;10.67;7.00;;;2.40;73.90;;;;;;10414877;28;20308;-67
2024/01/20 18:23:16;;;;;;;9.67;7.37;;;2.40;74.10;;;;;;10415421;28;20592;-67
2024/01/20 18:28:19;;;;;;;8.90;6.73;;;2.40;74.00;;;;;;10422755;28;20205;-62
2024/01/20 18:33:24;;;;;;;9.33;6.23;;;2.40;74.70;;;;;;10414928;28;20634;-63
2024/01/20 18:38:29;;;;;;;10.70;6.43;;;2.40;73.30;;;;;;10411971;28;20277;-63
2024/01/20 18:43:33;;;;;;;9.27;6.60;;;2.50;73.80;;;;;;10414287;28;20200;-65
2024/01/20 18:48:36;;;;;;;9.10;6.20;;;2.50;73.30;;;;;;10415276;28;20195;-68
2024/01/20 18:53:42;;;;;;;8.60;6.50;;;2.50;74.30;;;;;;10438090;28;20223;-67
2024/01/20 18:58:46;;;;;;;9.83;7.07;;;2.50;73.40;;;;;;10431975;28;20759;-66
2024/01/20 19:03:49;;;;;;;10.53;7.20;;;2.50;73.90;;;;;;10415796;28;20277;-67
2024/01/20 19:08:54;;;;;;;12.47;7.17;;;2.60;74.30;;;;;;10415772;28;20207;-62
2024/01/20 19:13:58;;;;;;;10.37;7.33;;;2.60;75.90;;;;;;10413043;28;20667;-67
2024/01/20 19:19:03;;;;;;;9.83;6.60;;;2.60;73.90;;;;;;10412158;28;20227;-62
2024/01/20 19:24:10;;;;;;;9.23;6.23;;;2.60;74.60;;;;;;10413482;28;20260;-65
2024/01/20 19:29:14;;;;;;;8.27;6.43;;;2.60;73.40;;;;;;10412020;28;20269;-67
2024/01/20 19:34:18;;;;;;;10.37;5.93;;;2.60;75.20;;;;;;10412651;28;20231;-68
2024/01/20 19:39:23;;;;;;;8.47;6.07;;;2.60;72.60;;;;;;10411547;28;20725;-66
2024/01/20 19:44:26;;;;;;;8.10;6.00;;;2.60;72.30;;;;;;10412023;28;20261;-67
2024/01/20 19:49:30;;;;;;;9.10;5.97;;;2.50;72.30;;;;;;10412570;28;20732;-67
2024/01/20 19:54:36;;;;;;;12.00;6.70;;;2.50;72.70;;;;;;10414169;28;20669;-67
2024/01/20 19:59:39;;;;;;;10.60;7.20;;;2.50;72.90;;;;;;10413141;28;20253;-67
2024/01/20 20:04:43;;;;;;;12.17;7.00;;;2.60;72.50;;;;;;10411791;28;20726;-62
2024/01/20 20:09:49;;;;;;;8.97;6.00;;;2.60;72.30;;;;;;10408901;28;20231;-62
2024/01/20 20:14:52;;;;;;;8.93;6.20;;;2.60;72.40;;;;;;10409606;28;20241;-63
2024/01/20 20:19:56;;;;;;;13.10;8.00;;;2.50;71.90;;;;;;10409832;28;20231;-61
2024/01/20 20:25:01;;;;;;;10.17;6.83;;;2.60;72.10;;;;;;10410297;28;20254;-63
2024/01/20 20:30:05;;;;;;;8.97;6.17;;;2.60;72.00;;;;;;10409761;28;20266;-62
2024/01/20 20:35:11;;;;;;;9.83;5.90;;;2.50;71.20;;;;;;10409124;28;20610;-66
2024/01/20 20:40:16;;;;;;;7.07;5.63;;;2.50;71.40;;;;;;10407255;28;20229;-64
2024/01/20 20:45:20;;;;;;;7.80;5.27;;;2.50;71.20;;;;;;10410520;28;20563;-64
2024/01/20 20:50:24;;;;;;;12.73;6.00;;;2.50;71.20;;;;;;10409498;28;20220;-65
2024/01/20 20:55:29;;;;;;;7.27;5.30;;;2.40;71.60;;;;;;10409385;28;20756;-64
2024/01/20 21:00:33;;;;;;;7.10;5.00;;;2.40;71.60;;;;;;10409317;28;20249;-65
2024/01/20 21:05:36;;;;;;;7.70;4.57;;;2.40;71.00;;;;;;10402319;28;20204;-65
2024/01/20 21:10:41;;;;;;;6.10;4.10;;;2.40;70.30;;;;;;10410297;28;20256;-64
2024/01/20 21:15:45;;;;;;;5.37;3.80;;;2.40;70.80;;;;;;10408982;28;20226;-65
2024/01/20 21:20:49;;;;;;;6.50;4.10;;;2.40;70.40;;;;;;10408601;28;20227;-63
2024/01/20 21:25:55;;;;;;;6.70;3.83;;;2.40;71.00;;;;;;10410572;28;20262;-64
2024/01/20 21:31:00;;;;;;;6.83;4.07;;;2.50;70.90;;;;;;10408606;28;20224;-65
2024/01/20 21:36:03;;;;;;;5.73;3.97;;;2.50;69.20;;;;;;10409044;28;20284;-63
2024/01/20 21:41:09;;;;;;;5.00;3.50;;;2.60;69.90;;;;;;10404368;28;20231;-63
2024/01/20 21:46:13;;;;;;;5.60;3.43;;;2.60;68.80;;;;;;10415015;28;20268;-62
2024/01/20 21:51:16;;;;;;;5.53;3.57;;;2.70;70.90;;;;;;10412518;28;20223;-62
2024/01/20 21:56:22;;;;;;;4.03;2.67;;;2.70;70.20;;;;;;10416780;28;20220;-66
2024/01/20 22:01:26;;;;;;;4.80;2.90;;;2.80;70.90;;;;;;10420689;28;20227;-63
2024/01/20 22:06:29;;;;;;;5.53;3.33;;;2.80;70.70;;;;;;10414758;28;20205;-63
2024/01/20 22:11:42;;;;;;;5.27;2.83;;;2.90;70.30;;;;;;10416888;28;20217;-63
2024/01/20 22:16:45;;;;;;;4.87;3.40;;;2.90;71.30;;;;;;10416098;28;20575;-63
2024/01/20 22:21:49;;;;;;;4.10;2.93;;;2.90;73.00;;;;;;10420226;28;20757;-63
2024/01/20 22:26:54;;;;;;;5.50;3.57;;;2.90;69.70;;;;;;10418439;28;20337;-63
2024/01/20 22:31:58;;;;;;;5.13;2.90;;;3.00;68.90;;;;;;10406322;28;20343;-63
2024/01/20 22:37:01;;;;;;;3.87;2.73;;;3.00;69.20;;;;;;10407482;28;20760;-63
2024/01/20 22:42:06;;;;;;;3.23;2.30;;;3.00;69.90;;;;;;10400293;28;20255;-63
2024/01/20 22:47:10;;;;;;;2.53;2.00;;;3.10;74.20;;;;;;10399889;28;20211;-63
2024/01/20 22:52:14;;;;;;;3.17;1.90;;;3.10;75.00;;;;;;10407264;28;20284;-62
2024/01/20 22:57:19;;;;;;;3.30;2.17;;;3.20;76.90;;;;;;10411319;28;20275;-62
2024/01/20 23:02:23;;;;;;;3.60;2.30;;;3.20;75.90;;;;;;10407374;28;20280;-63
2024/01/20 23:07:26;;;;;;;2.63;1.80;;;3.20;77.20;;;;;;10403996;28;20225;-61
2024/01/20 23:12:31;;;;;;;2.37;1.60;;;3.30;76.40;;;;;;10405277;28;20278;-62
2024/01/20 23:17:35;;;;;;;2.93;1.70;;;3.30;76.60;;;;;;10403301;28;20256;-62
2024/01/20 23:22:39;;;;;;;3.33;2.07;;;3.30;75.80;;;;;;10408410;28;20592;-63
2024/01/20 23:27:44;;;;;;;5.37;1.80;;;3.40;77.10;;;;;;10406261;28;20672;-62
2024/01/20 23:32:48;;;;;;;4.13;1.80;;;3.40;77.50;;;;;;10408436;28;20878;-63
2024/01/20 23:37:51;;;;;;;3.60;1.90;;;3.40;76.60;;;;;;10401560;28;20332;-63
2024/01/20 23:42:56;;;;;;;3.50;2.10;;;3.40;75.60;;;;;;10406480;28;20224;-63
2024/01/20 23:48:00;;;;;;;2.80;1.70;;;3.40;78.60;;;;;;10403949;28;20268;-63
2024/01/20 23:53:04;;;;;;;3.13;2.13;;;3.40;74.00;;;;;;10412037;28;20602;-63
2024/01/20 23:58:09;;;;;;;4.63;2.10;;;3.40;73.00;;;;;;10400398;28;20266;-62
